Wapiti, WY

5:56 PM MST on December 03, 2016 (GMT -0700)
HADS | | Change Station

Elev 5398 ft 44.47 °N, 109.43 °W | Updated 1 hour ago

Clear
Clear
31.0 °F
Feels Like 31.0 °F
N
0.0
Wind Variable Wind from North
Gusts 0.0 mph

Today
High -- | Low -- °F
--% Chance of Precip.
Yesterday
High -- | Low -- °F
Precip. -- in
Pressure 30.07 in
Visibility 10.0 miles
Clouds Clear
Dew Point Not available.
Humidity Not available.
Rainfall in
Snow Depth Not available.
7:36 AM 4:38 PM
Waxing Crescent, 18% visible
METAR KCOD 032356Z AUTO 25019G24KT 10SM CLR 01/M12 A2997 RMK AO2 PK WND 30030/2339 SLP181 T00061117 10039 20006 53010 FZRANO
Pressure 30.07 in
Visibility 10.0 miles
Clouds Clear
Dew Point Not available.
Humidity Not available.
Rainfall in
Snow Depth Not available.
7:36 AM 4:38 PM
Waxing Crescent, 18% visible
METAR KCOD 032356Z AUTO 25019G24KT 10SM CLR 01/M12 A2997 RMK AO2 PK WND 30030/2339 SLP181 T00061117 10039 20006 53010 FZRANO

10-Day Weather Forecast

Almanac

Astronomy

Dec. 03, 2016 Rise Set
Actual Time
Civil Twilight
Nautical Twilight
Astronomical Twilight
Moon
Length of Visible Light
Length of Day
Tomorrow will be .
, % of the Moon is Illuminated

Today's Extremes

State Highs State Lows

Community

WunderPhotos

Upload Photos

1,955,542 photos uploaded!

WunderBlog® & News

Nearby

Air Quality

  Air Quality AQ Index Pollutant
Not available.

Snow Depth

Station Depth Elevation

Earthquake Activity

City Distance Mag. Time & Date
Minimum magnitude displayed is 2.5.

Coastal Water Temperatures

Place Temperature

Stations

Nearby Weather Stations

Station Location Temp. Windchill Dew Point Humidity Wind Precip. Elev Updated Type
                   

Watches & Warnings

There are currently no watches in effect.